createdAt,value
2023-05-16T00:01:30.076Z,100.00
2023-05-16T00:03:57.411Z,100.00
2023-05-16T00:06:23.913Z,100.00
2023-05-16T00:08:50.337Z,100.00
2023-05-16T00:11:17.707Z,100.00
2023-05-16T00:13:45.293Z,100.00
2023-05-16T00:16:14.448Z,100.00
2023-05-16T00:18:40.972Z,100.00
2023-05-16T00:21:07.422Z,100.00
2023-05-16T00:23:34.333Z,100.00
2023-05-16T00:26:00.746Z,100.00
2023-05-16T00:28:27.139Z,100.00
2023-05-16T00:30:53.533Z,100.00
2023-05-16T00:33:20.155Z,100.00
2023-05-16T00:35:46.525Z,100.00
2023-05-16T00:38:12.963Z,100.00
2023-05-16T00:40:39.417Z,100.00
2023-05-16T00:43:05.899Z,100.00
2023-05-16T00:45:32.310Z,100.00
2023-05-16T00:47:58.828Z,100.00
2023-05-16T00:50:25.491Z,100.00
2023-05-16T00:52:52.231Z,100.00
2023-05-16T00:55:18.739Z,100.00
2023-05-16T00:57:45.297Z,100.00
2023-05-16T01:00:12.621Z,100.00
2023-05-16T01:02:39.289Z,100.00
2023-05-16T01:05:07.236Z,100.00
2023-05-16T01:07:34.004Z,100.00
2023-05-16T01:10:00.699Z,100.00
2023-05-16T01:12:38.381Z,100.00
2023-05-16T01:15:08.716Z,100.00
2023-05-16T01:18:21.210Z,100.00
2023-05-16T01:20:57.858Z,100.00
2023-05-16T01:23:34.529Z,100.00
2023-05-16T01:26:24.959Z,100.00
2023-05-16T01:28:52.691Z,100.00
2023-05-16T01:31:20.215Z,100.00
2023-05-16T01:33:47.279Z,100.00
2023-05-16T01:36:31.349Z,100.00
2023-05-16T01:39:26.070Z,100.00
2023-05-16T01:42:02.940Z,100.00
2023-05-16T01:44:32.793Z,100.00
2023-05-16T01:47:02.417Z,100.00
2023-05-16T01:49:44.089Z,100.00
2023-05-16T01:52:17.582Z,100.00
2023-05-16T01:54:45.452Z,100.00
2023-05-16T01:57:12.895Z,100.00
2023-05-16T01:59:41.071Z,100.00
2023-05-16T02:02:07.500Z,100.00
2023-05-16T02:04:33.988Z,100.00
2023-05-16T02:07:01.794Z,100.00
2023-05-16T02:09:28.200Z,100.00
2023-05-16T02:11:54.692Z,100.00
2023-05-16T02:14:21.063Z,100.00
2023-05-16T02:16:48.488Z,100.00
2023-05-16T02:19:15.014Z,100.00
2023-05-16T02:21:41.470Z,100.00
2023-05-16T02:24:07.878Z,100.00
2023-05-16T02:26:34.283Z,100.00
2023-05-16T02:29:00.684Z,100.00
2023-05-16T02:31:32.297Z,100.00
2023-05-16T02:33:59.884Z,100.00
2023-05-16T02:36:26.542Z,100.00
2023-05-16T02:38:53.187Z,100.00
2023-05-16T02:41:22.225Z,100.00
2023-05-16T02:43:49.247Z,100.00
2023-05-16T02:46:27.900Z,100.00
2023-05-16T02:48:54.693Z,100.00
2023-05-16T02:51:22.749Z,100.00
2023-05-16T02:53:49.311Z,100.00
2023-05-16T02:56:15.718Z,100.00
2023-05-16T02:58:42.397Z,100.00
2023-05-16T03:01:09.605Z,100.00
2023-05-16T03:03:37.354Z,100.00
2023-05-16T03:06:03.863Z,100.00
2023-05-16T03:08:30.718Z,100.00
2023-05-16T03:10:57.121Z,100.00
2023-05-16T03:13:23.721Z,100.00
2023-05-16T03:15:50.592Z,100.00
2023-05-16T03:18:17.004Z,100.00
2023-05-16T03:20:43.499Z,100.00
2023-05-16T03:23:09.917Z,100.00
2023-05-16T03:25:36.914Z,100.00
2023-05-16T03:28:08.216Z,100.00
2023-05-16T03:30:34.925Z,100.00
2023-05-16T03:33:01.437Z,100.00
2023-05-16T03:35:28.810Z,100.00
2023-05-16T03:37:55.743Z,100.00
2023-05-16T03:40:22.153Z,100.00
2023-05-16T03:42:48.609Z,100.00
2023-05-16T03:45:15.669Z,100.00
2023-05-16T03:47:42.733Z,100.00
2023-05-16T03:50:09.879Z,100.00
2023-05-16T03:52:36.490Z,100.00
2023-05-16T03:55:03.837Z,100.00
2023-05-16T03:57:31.891Z,100.00
2023-05-16T03:59:58.318Z,100.00
2023-05-16T04:02:24.884Z,100.00
2023-05-16T04:04:51.398Z,100.00
2023-05-16T04:07:17.782Z,100.00
2023-05-16T04:09:44.199Z,100.00
2023-05-16T04:12:10.654Z,100.00
2023-05-16T04:14:37.281Z,100.00
2023-05-16T04:17:03.812Z,100.00
2023-05-16T04:19:30.210Z,100.00
2023-05-16T04:21:57.043Z,100.00
2023-05-16T04:24:26.476Z,100.00
2023-05-16T04:26:52.939Z,100.00
2023-05-16T04:29:19.564Z,100.00
2023-05-16T04:31:46.031Z,100.00
2023-05-16T04:34:13.055Z,100.00
2023-05-16T04:36:40.241Z,100.00
2023-05-16T04:39:08.062Z,100.00
2023-05-16T04:41:36.132Z,100.00
2023-05-16T04:44:06.339Z,100.00
2023-05-16T04:46:32.752Z,100.00
2023-05-16T04:48:59.209Z,100.00
2023-05-16T04:51:25.767Z,100.00
2023-05-16T04:53:52.159Z,100.00
2023-05-16T04:56:18.880Z,100.00
2023-05-16T04:58:45.286Z,100.00
2023-05-16T05:01:11.702Z,100.00
2023-05-16T05:03:38.128Z,100.00
2023-05-16T05:06:04.719Z,100.00
2023-05-16T05:08:31.128Z,100.00
2023-05-16T05:10:57.732Z,100.00
2023-05-16T05:13:24.152Z,100.00
2023-05-16T05:15:52.225Z,100.00
2023-05-16T05:18:18.896Z,100.00
2023-05-16T05:20:45.312Z,100.00
2023-05-16T05:23:11.794Z,100.00
2023-05-16T05:25:38.825Z,100.00
2023-05-16T05:28:05.911Z,100.00
2023-05-16T05:30:32.344Z,100.00
2023-05-16T05:32:58.808Z,100.00
2023-05-16T05:35:25.474Z,100.00
2023-05-16T05:37:52.304Z,100.00
2023-05-16T05:40:18.699Z,100.00
2023-05-16T05:42:47.032Z,100.00
2023-05-16T05:45:14.656Z,100.00
2023-05-16T05:47:41.278Z,100.00
2023-05-16T05:50:09.003Z,100.00
2023-05-16T05:52:35.400Z,100.00
2023-05-16T05:55:01.949Z,100.00
2023-05-16T05:57:28.334Z,100.00
2023-05-16T05:59:54.714Z,100.00
2023-05-16T06:02:21.296Z,100.00
2023-05-16T06:04:47.756Z,100.00
2023-05-16T06:07:15.935Z,100.00
2023-05-16T06:09:43.491Z,100.00
2023-05-16T06:12:09.941Z,100.00
2023-05-16T06:14:36.344Z,100.00
2023-05-16T06:17:02.794Z,100.00
2023-05-16T06:19:29.310Z,100.00
2023-05-16T06:21:56.244Z,100.00
2023-05-16T06:24:22.772Z,100.00
2023-05-16T06:26:50.202Z,100.00
2023-05-16T06:29:17.340Z,100.00
2023-05-16T06:31:44.625Z,100.00
2023-05-16T06:34:11.213Z,100.00
2023-05-16T06:36:37.665Z,100.00
2023-05-16T06:39:04.863Z,100.00
2023-05-16T06:41:31.325Z,100.00
2023-05-16T06:43:57.801Z,100.00
2023-05-16T06:46:24.363Z,100.00
2023-05-16T06:48:50.882Z,100.00
2023-05-16T06:51:17.318Z,100.00
2023-05-16T06:53:43.757Z,100.00
2023-05-16T06:56:10.183Z,100.00
2023-05-16T06:58:36.875Z,100.00
2023-05-16T07:01:03.414Z,100.00
2023-05-16T07:03:31.890Z,100.00
2023-05-16T07:05:58.524Z,100.00
2023-05-16T07:08:25.925Z,100.00
2023-05-16T07:10:52.350Z,100.00
2023-05-16T07:13:18.776Z,100.00
2023-05-16T07:15:45.222Z,100.00
2023-05-16T07:18:11.831Z,100.00
2023-05-16T07:20:38.320Z,100.00
2023-05-16T07:23:04.744Z,100.00
2023-05-16T07:25:31.601Z,98.09
2023-05-16T07:27:58.037Z,97.37
2023-05-16T07:30:24.663Z,94.87
2023-05-16T07:32:51.316Z,94.50
2023-05-16T07:35:18.293Z,95.41
2023-05-16T07:37:44.707Z,95.46
2023-05-16T07:40:11.681Z,93.20
2023-05-16T07:42:38.147Z,94.40
2023-05-16T07:45:06.911Z,96.07
2023-05-16T07:47:33.404Z,89.96
2023-05-16T07:49:59.890Z,86.65
2023-05-16T07:52:26.336Z,86.57
2023-05-16T07:54:52.834Z,85.76
2023-05-16T07:57:19.485Z,86.75
2023-05-16T07:59:46.752Z,84.25
2023-05-16T08:02:13.245Z,85.65
2023-05-16T08:04:39.709Z,85.58
2023-05-16T08:07:06.198Z,79.56
2023-05-16T08:09:32.667Z,79.68
2023-05-16T08:12:03.346Z,78.75
2023-05-16T08:14:31.715Z,76.22
2023-05-16T08:17:01.329Z,73.40
2023-05-16T08:19:27.899Z,74.53
2023-05-16T08:21:54.854Z,74.75
2023-05-16T08:24:21.361Z,73.34
2023-05-16T08:26:47.791Z,74.31
2023-05-16T08:29:14.583Z,74.52
2023-05-16T08:31:41.076Z,74.29
2023-05-16T08:34:09.275Z,75.61
2023-05-16T08:36:36.949Z,76.83
2023-05-16T08:39:03.744Z,77.67
2023-05-16T08:41:30.877Z,73.51
2023-05-16T08:43:57.604Z,72.27
2023-05-16T08:46:24.351Z,73.87
2023-05-16T08:48:53.235Z,70.98
2023-05-16T08:51:20.795Z,68.61
2023-05-16T08:54:11.772Z,69.79
2023-05-16T08:56:38.608Z,69.79
2023-05-16T08:59:05.263Z,69.22
2023-05-16T09:01:32.425Z,67.27
2023-05-16T09:04:00.166Z,67.69
2023-05-16T09:06:27.648Z,66.78
2023-05-16T09:08:54.920Z,63.77
2023-05-16T09:11:21.730Z,64.16
2023-05-16T09:13:49.071Z,64.11
2023-05-16T09:16:19.838Z,63.36
2023-05-16T09:18:57.643Z,62.43
2023-05-16T09:21:28.094Z,63.66
2023-05-16T09:23:54.945Z,65.07
2023-05-16T09:26:22.621Z,66.26
2023-05-16T09:28:49.175Z,64.09
2023-05-16T09:31:24.888Z,63.63
2023-05-16T09:33:51.347Z,65.20
2023-05-16T09:36:17.854Z,66.39
2023-05-16T09:38:45.314Z,66.58
2023-05-16T09:41:11.796Z,68.03
2023-05-16T09:43:41.125Z,67.08
2023-05-16T09:46:08.488Z,65.16
2023-05-16T09:48:34.985Z,65.56
2023-05-16T09:51:05.662Z,62.18
2023-05-16T09:53:33.204Z,62.41
2023-05-16T09:56:01.296Z,61.50
2023-05-16T09:58:32.933Z,60.82
2023-05-16T10:00:59.639Z,59.69
2023-05-16T10:03:27.059Z,60.07
2023-05-16T10:05:54.595Z,61.47
2023-05-16T10:08:22.548Z,60.05
2023-05-16T10:10:54.934Z,58.43
2023-05-16T10:13:22.833Z,57.32
2023-05-16T10:15:50.143Z,58.93
2023-05-16T10:18:20.832Z,59.08
2023-05-16T10:20:49.706Z,59.45
2023-05-16T10:23:20.226Z,59.09
2023-05-16T10:25:49.826Z,60.39
2023-05-16T10:28:16.675Z,60.88
2023-05-16T10:30:45.452Z,60.80
2023-05-16T10:33:16.627Z,61.14
2023-05-16T10:35:44.290Z,63.29
2023-05-16T10:38:12.394Z,62.13
2023-05-16T10:40:39.691Z,59.34
2023-05-16T10:43:08.365Z,58.36
2023-05-16T10:45:39.828Z,59.01
2023-05-16T10:48:08.818Z,59.86
2023-05-16T10:50:44.928Z,59.77
2023-05-16T10:53:13.502Z,59.82
2023-05-16T10:55:40.753Z,59.64
2023-05-16T10:58:07.980Z,58.72
2023-05-16T11:00:34.424Z,58.99
2023-05-16T11:03:25.166Z,59.52
2023-05-16T11:05:54.038Z,58.82
2023-05-16T11:08:20.697Z,57.58
2023-05-16T11:10:47.449Z,56.20
2023-05-16T11:13:19.475Z,54.88
2023-05-16T11:15:46.333Z,54.63
2023-05-16T11:18:17.011Z,55.16
2023-05-16T11:20:43.605Z,56.88
2023-05-16T11:23:19.712Z,56.51
2023-05-16T11:25:48.143Z,56.59
2023-05-16T11:28:15.150Z,56.37
2023-05-16T11:30:46.675Z,55.31
2023-05-16T11:33:13.473Z,56.73
2023-05-16T11:35:40.017Z,56.15
2023-05-16T11:38:06.467Z,57.41
2023-05-16T11:40:32.910Z,57.46
2023-05-16T11:43:00.766Z,58.19
2023-05-16T11:45:27.451Z,57.73
2023-05-16T11:47:54.049Z,60.02
2023-05-16T11:50:22.106Z,62.25
2023-05-16T11:52:53.423Z,63.55
2023-05-16T11:55:40.371Z,65.23
2023-05-16T11:58:08.805Z,66.33
2023-05-16T12:00:35.279Z,65.72
2023-05-16T12:03:05.554Z,64.42
2023-05-16T12:05:33.645Z,61.33
2023-05-16T12:08:00.948Z,58.87
2023-05-16T12:10:27.787Z,57.58
2023-05-16T12:12:54.865Z,55.88
2023-05-16T12:15:21.620Z,55.24
2023-05-16T12:17:48.601Z,52.53
2023-05-16T12:20:16.328Z,49.94
2023-05-16T12:22:46.459Z,48.37
2023-05-16T12:25:26.157Z,47.59
2023-05-16T12:27:54.398Z,48.21
2023-05-16T12:30:22.943Z,48.78
2023-05-16T12:33:00.874Z,47.44
2023-05-16T12:35:33.194Z,48.09
2023-05-16T12:38:01.059Z,49.32
2023-05-16T12:40:30.807Z,50.07
2023-05-16T12:42:57.805Z,51.27
2023-05-16T12:45:27.270Z,52.73
2023-05-16T12:47:54.007Z,53.03
2023-05-16T12:50:20.664Z,52.74
2023-05-16T12:52:51.489Z,51.29
2023-05-16T12:55:18.848Z,51.04
2023-05-16T12:57:47.569Z,49.99
2023-05-16T13:00:15.690Z,48.63
2023-05-16T13:02:42.339Z,47.75
2023-05-16T13:05:10.151Z,46.24
2023-05-16T13:07:37.370Z,43.93
2023-05-16T13:10:04.337Z,43.98
2023-05-16T13:12:31.064Z,43.59
2023-05-16T13:14:57.517Z,43.44
2023-05-16T13:17:23.952Z,44.12
2023-05-16T13:19:50.484Z,43.20
2023-05-16T13:22:16.932Z,41.14
2023-05-16T13:24:43.360Z,40.55
2023-05-16T13:27:09.866Z,41.75
2023-05-16T13:29:36.315Z,44.05
2023-05-16T13:32:02.885Z,45.52
2023-05-16T13:34:29.521Z,47.41
2023-05-16T13:36:55.968Z,48.74
2023-05-16T13:39:22.581Z,50.28
2023-05-16T13:41:49.439Z,49.09
2023-05-16T13:44:16.528Z,49.05
2023-05-16T13:46:43.198Z,48.66
2023-05-16T13:49:09.776Z,48.35
2023-05-16T13:51:36.350Z,49.34
2023-05-16T13:54:02.806Z,49.71
2023-05-16T13:56:29.243Z,48.74
2023-05-16T13:59:02.533Z,49.79
2023-05-16T14:01:32.583Z,49.96
2023-05-16T14:03:59.103Z,50.25
2023-05-16T14:06:25.702Z,52.37
2023-05-16T14:08:52.123Z,52.73
2023-05-16T14:11:19.831Z,51.97
2023-05-16T14:13:46.572Z,52.25
2023-05-16T14:16:13.036Z,52.87
2023-05-16T14:18:39.590Z,51.63
2023-05-16T14:21:06.081Z,51.08
2023-05-16T14:23:32.514Z,51.29
2023-05-16T14:25:59.153Z,51.97
2023-05-16T14:28:25.559Z,51.59
2023-05-16T14:30:52.187Z,50.72
2023-05-16T14:33:19.739Z,51.10
2023-05-16T14:35:46.321Z,50.71
2023-05-16T14:38:12.832Z,50.58
2023-05-16T14:40:39.261Z,51.66
2023-05-16T14:43:05.778Z,51.86
2023-05-16T14:45:32.253Z,52.08
2023-05-16T14:47:58.755Z,52.44
2023-05-16T14:50:25.602Z,51.94
2023-05-16T14:52:53.004Z,52.83
2023-05-16T14:55:20.790Z,53.57
2023-05-16T14:57:50.444Z,53.21
2023-05-16T15:00:23.181Z,52.81
2023-05-16T15:02:49.647Z,53.20
2023-05-16T15:05:16.328Z,54.57
2023-05-16T15:07:43.884Z,54.93
2023-05-16T15:10:11.089Z,54.64
2023-05-16T15:12:40.817Z,54.55
2023-05-16T15:15:11.928Z,54.68
2023-05-16T15:17:41.809Z,54.42
2023-05-16T15:20:10.279Z,54.87
2023-05-16T15:22:37.141Z,55.10
2023-05-16T15:25:05.704Z,55.29
2023-05-16T15:27:32.366Z,56.18
2023-05-16T15:29:59.342Z,56.25
2023-05-16T15:32:26.038Z,56.12
2023-05-16T15:34:52.585Z,56.64
2023-05-16T15:37:19.370Z,56.91
2023-05-16T15:39:45.821Z,57.21
2023-05-16T15:42:12.289Z,56.02
2023-05-16T15:44:39.451Z,56.07
2023-05-16T15:47:06.322Z,55.55
2023-05-16T15:49:32.816Z,55.26
2023-05-16T15:51:59.323Z,56.54
2023-05-16T15:54:25.896Z,57.57
2023-05-16T15:56:52.313Z,58.25
2023-05-16T15:59:18.836Z,58.67
2023-05-16T16:01:45.377Z,59.11
2023-05-16T16:04:11.800Z,58.79
2023-05-16T16:06:38.321Z,58.40
2023-05-16T16:09:04.821Z,58.42
2023-05-16T16:11:31.363Z,59.08
2023-05-16T16:13:57.831Z,59.18
2023-05-16T16:16:24.315Z,59.63
2023-05-16T16:18:50.984Z,60.11
2023-05-16T16:21:17.736Z,60.05
2023-05-16T16:23:44.204Z,60.02
2023-05-16T16:26:10.630Z,60.18
2023-05-16T16:28:37.107Z,58.78
2023-05-16T16:31:03.995Z,59.51
2023-05-16T16:33:31.055Z,60.06
2023-05-16T16:35:57.511Z,60.33
2023-05-16T16:38:23.947Z,60.61
2023-05-16T16:40:50.472Z,59.78
2023-05-16T16:43:17.281Z,60.14
2023-05-16T16:45:43.742Z,60.23
2023-05-16T16:48:10.778Z,60.52
2023-05-16T16:50:37.438Z,60.49
2023-05-16T16:53:04.462Z,61.06
2023-05-16T16:55:31.197Z,61.23
2023-05-16T16:57:57.719Z,61.91
2023-05-16T17:00:24.466Z,62.25
2023-05-16T17:02:51.162Z,63.45
2023-05-16T17:05:17.804Z,64.02
2023-05-16T17:07:44.338Z,64.73
2023-05-16T17:10:10.946Z,65.35
2023-05-16T17:12:44.387Z,65.56
2023-05-16T17:15:11.794Z,66.81
2023-05-16T17:17:38.503Z,67.07
2023-05-16T17:20:07.225Z,67.32
2023-05-16T17:22:33.807Z,67.43
2023-05-16T17:25:00.242Z,67.73
2023-05-16T17:27:26.676Z,67.84
2023-05-16T17:29:53.144Z,68.15
2023-05-16T17:32:21.338Z,67.15
2023-05-16T17:34:48.174Z,67.66
2023-05-16T17:37:14.680Z,67.98
2023-05-16T17:39:41.134Z,68.39
2023-05-16T17:42:09.074Z,67.96
2023-05-16T17:44:36.432Z,68.33
2023-05-16T17:47:02.913Z,67.96
2023-05-16T17:49:29.605Z,68.33
2023-05-16T17:51:59.029Z,68.53
2023-05-16T17:54:27.156Z,69.30
2023-05-16T17:56:53.657Z,69.60
2023-05-16T17:59:20.159Z,69.40
2023-05-16T18:01:47.319Z,68.68
2023-05-16T18:04:14.324Z,68.98
2023-05-16T18:06:41.128Z,68.86
2023-05-16T18:09:09.893Z,69.02
2023-05-16T18:11:37.970Z,68.85
2023-05-16T18:14:04.677Z,69.53
2023-05-16T18:16:31.248Z,69.72
2023-05-16T18:18:58.122Z,70.41
2023-05-16T18:21:24.858Z,70.09
2023-05-16T18:23:51.679Z,70.83
2023-05-16T18:26:19.260Z,70.69
2023-05-16T18:28:46.164Z,70.26
2023-05-16T18:31:12.655Z,70.51
2023-05-16T18:33:39.158Z,70.84
2023-05-16T18:36:05.825Z,71.07
2023-05-16T18:38:33.606Z,70.90
2023-05-16T18:41:00.452Z,70.79
2023-05-16T18:43:26.971Z,71.09
2023-05-16T18:45:53.450Z,70.46
2023-05-16T18:48:19.984Z,70.30
2023-05-16T18:50:46.689Z,69.83
2023-05-16T18:53:13.175Z,69.99
2023-05-16T18:55:39.755Z,69.79
2023-05-16T18:58:06.904Z,70.39
2023-05-16T19:00:34.238Z,70.42
2023-05-16T19:03:01.149Z,69.87
2023-05-16T19:05:28.037Z,69.51
2023-05-16T19:07:54.756Z,69.59
2023-05-16T19:10:21.463Z,70.39
2023-05-16T19:12:49.035Z,70.34
2023-05-16T19:15:15.546Z,70.37
2023-05-16T19:17:42.104Z,70.16
2023-05-16T19:20:09.942Z,70.18
2023-05-16T19:22:36.756Z,69.58
2023-05-16T19:25:03.825Z,70.02
2023-05-16T19:27:30.738Z,69.80
2023-05-16T19:29:57.128Z,69.98
2023-05-16T19:32:23.866Z,69.75
2023-05-16T19:34:50.376Z,69.89
2023-05-16T19:37:16.844Z,70.01
2023-05-16T19:39:43.261Z,69.75
2023-05-16T19:42:09.689Z,69.75
2023-05-16T19:44:36.085Z,69.63
2023-05-16T19:47:02.690Z,69.93
2023-05-16T19:49:31.607Z,70.23
2023-05-16T19:51:58.104Z,70.16
2023-05-16T19:54:24.621Z,69.75
2023-05-16T19:56:51.060Z,69.30
2023-05-16T19:59:17.593Z,70.51
2023-05-16T20:01:44.222Z,70.25
2023-05-16T20:04:11.587Z,70.13
2023-05-16T20:06:38.197Z,70.60
2023-05-16T20:09:05.963Z,70.64
2023-05-16T20:11:32.612Z,71.08
2023-05-16T20:14:00.124Z,71.06
2023-05-16T20:16:27.245Z,70.67
2023-05-16T20:18:53.887Z,71.42
2023-05-16T20:21:20.433Z,71.37
2023-05-16T20:23:46.949Z,71.89
2023-05-16T20:26:14.854Z,72.09
2023-05-16T20:28:41.813Z,71.51
2023-05-16T20:31:08.354Z,72.13
2023-05-16T20:33:34.849Z,72.02
2023-05-16T20:36:01.327Z,72.83
2023-05-16T20:38:27.793Z,72.99
2023-05-16T20:40:54.203Z,73.81
2023-05-16T20:43:20.700Z,74.04
2023-05-16T20:45:47.142Z,74.20
2023-05-16T20:48:14.032Z,74.45
2023-05-16T20:50:40.644Z,74.77
2023-05-16T20:53:07.166Z,74.81
2023-05-16T20:55:33.618Z,74.33
2023-05-16T20:58:00.743Z,75.64
2023-05-16T21:00:27.199Z,75.27
2023-05-16T21:02:53.705Z,75.55
2023-05-16T21:05:25.454Z,75.27
2023-05-16T21:07:52.658Z,75.05
2023-05-16T21:10:19.145Z,75.81
2023-05-16T21:12:45.696Z,76.12
2023-05-16T21:15:12.324Z,76.09
2023-05-16T21:17:40.740Z,75.37
2023-05-16T21:20:08.155Z,75.93
2023-05-16T21:22:34.633Z,75.89
2023-05-16T21:25:01.164Z,76.36
2023-05-16T21:27:27.623Z,76.44
2023-05-16T21:29:54.060Z,77.10
2023-05-16T21:32:20.489Z,78.03
2023-05-16T21:34:46.921Z,78.80
2023-05-16T21:37:13.465Z,78.96
2023-05-16T21:39:39.895Z,78.40
2023-05-16T21:42:06.568Z,77.90
2023-05-16T21:44:33.009Z,78.04
2023-05-16T21:46:59.428Z,79.19
2023-05-16T21:49:25.882Z,79.68
2023-05-16T21:51:52.351Z,79.61
2023-05-16T21:54:18.860Z,81.74
2023-05-16T21:56:45.583Z,82.02
2023-05-16T21:59:13.744Z,81.97
2023-05-16T22:01:40.223Z,82.38
2023-05-16T22:04:06.794Z,82.14
2023-05-16T22:06:33.359Z,83.67
2023-05-16T22:09:04.331Z,84.20
2023-05-16T22:11:30.950Z,85.58
2023-05-16T22:13:57.443Z,85.44
2023-05-16T22:16:23.946Z,84.64
2023-05-16T22:18:50.480Z,85.89
2023-05-16T22:21:17.203Z,85.59
2023-05-16T22:23:43.661Z,85.57
2023-05-16T22:26:10.262Z,85.92
2023-05-16T22:28:36.742Z,88.21
2023-05-16T22:31:03.150Z,88.36
2023-05-16T22:33:29.668Z,89.94
2023-05-16T22:35:56.189Z,90.45
2023-05-16T22:38:22.670Z,90.07
2023-05-16T22:40:49.125Z,90.41
2023-05-16T22:43:15.721Z,89.96
2023-05-16T22:45:42.122Z,91.90
2023-05-16T22:48:08.696Z,91.23
2023-05-16T22:50:35.199Z,92.41
2023-05-16T22:53:01.618Z,93.02
2023-05-16T22:55:28.282Z,92.81
2023-05-16T22:57:57.051Z,93.10
2023-05-16T23:00:23.570Z,94.51
2023-05-16T23:02:50.148Z,94.52
2023-05-16T23:05:16.858Z,95.78
2023-05-16T23:07:43.306Z,97.51
2023-05-16T23:10:09.840Z,97.42
2023-05-16T23:12:36.279Z,98.42
2023-05-16T23:15:03.215Z,99.54
2023-05-16T23:17:29.746Z,100.00
2023-05-16T23:19:56.332Z,100.00
2023-05-16T23:22:22.862Z,100.00
2023-05-16T23:24:49.294Z,100.00
2023-05-16T23:27:15.747Z,100.00
2023-05-16T23:29:42.402Z,100.00
2023-05-16T23:32:08.850Z,100.00
2023-05-16T23:34:35.368Z,100.00
2023-05-16T23:37:01.799Z,100.00
2023-05-16T23:39:28.278Z,100.00
2023-05-16T23:41:54.873Z,100.00
2023-05-16T23:44:21.313Z,100.00
2023-05-16T23:46:47.761Z,100.00
2023-05-16T23:49:14.189Z,100.00
2023-05-16T23:51:56.224Z,100.00
2023-05-16T23:54:23.646Z,100.00
2023-05-16T23:56:50.129Z,100.00
2023-05-16T23:59:16.618Z,100.00
